Time;durP1;ratioP1;P1;durP2;ratioP2;P2;SDS_P1;SDS_P2;PMS_P1;PMS_P2;Temp;Humidity;BMP_temperature;BMP_pressure;BME280_temperature;BME280_humidity;BME280_pressure;Samples;Min_cycle;Max_cycle;Signal;HPM_P1;HPM_P2
2023/01/28 00:01:58;;;;;;;14.82;11.52;;;7.60;64.60;;;;;;5083301;28;20411;-45
2023/01/28 00:04:27;;;;;;;14.88;11.73;;;7.60;64.70;;;;;;5091294;28;20059;-47
2023/01/28 00:06:54;;;;;;;12.82;11.02;;;7.60;64.50;;;;;;5085102;28;20492;-46
2023/01/28 00:09:21;;;;;;;14.00;11.02;;;7.60;64.50;;;;;;5084030;28;20071;-46
2023/01/28 00:11:47;;;;;;;12.65;10.65;;;7.60;64.50;;;;;;5087666;28;20036;-46
2023/01/28 00:14:16;;;;;;;12.43;10.95;;;7.60;65.10;;;;;;5075511;28;20084;-46
2023/01/28 00:16:43;;;;;;;12.50;11.10;;;7.60;64.60;;;;;;5084943;28;20036;-45
2023/01/28 00:19:10;;;;;;;15.60;10.98;;;7.60;64.60;;;;;;5082255;28;20032;-46
2023/01/28 00:21:39;;;;;;;13.50;11.02;;;7.60;64.60;;;;;;5081623;28;20116;-45
2023/01/28 00:24:11;;;;;;;14.27;11.75;;;7.60;64.60;;;;;;5077025;28;20123;-45
2023/01/28 00:26:40;;;;;;;12.48;10.95;;;7.60;64.60;;;;;;5073877;28;20043;-45
2023/01/28 00:29:07;;;;;;;13.57;11.75;;;7.60;64.60;;;;;;5077454;28;20411;-47
2023/01/28 00:31:36;;;;;;;13.57;11.73;;;7.60;64.60;;;;;;5073722;28;20391;-45
2023/01/28 00:34:03;;;;;;;12.93;11.07;;;7.60;64.50;;;;;;5073974;28;20093;-46
2023/01/28 00:36:31;;;;;;;13.20;11.38;;;7.60;64.60;;;;;;5082146;28;20492;-46
2023/01/28 00:39:00;;;;;;;12.50;11.15;;;7.60;64.60;;;;;;5061372;28;20048;-46
2023/01/28 00:41:36;;;;;;;13.25;11.15;;;7.60;64.40;;;;;;5056458;28;20381;-47
2023/01/28 00:44:07;;;;;;;13.45;10.88;;;7.60;64.50;;;;;;5058693;28;20044;-47
2023/01/28 00:46:37;;;;;;;12.75;10.35;;;7.60;64.40;;;;;;5064627;28;20134;-47
2023/01/28 00:49:03;;;;;;;11.27;9.75;;;7.60;64.40;;;;;;5089450;28;20510;-44
2023/01/28 00:51:33;;;;;;;11.60;10.23;;;7.60;64.30;;;;;;5068630;28;20064;-45
2023/01/28 00:54:00;;;;;;;10.35;9.23;;;7.60;64.30;;;;;;5083875;28;20119;-46
2023/01/28 00:56:26;;;;;;;10.27;9.27;;;7.60;64.30;;;;;;5085155;28;20112;-49
2023/01/28 00:58:59;;;;;;;10.13;9.10;;;7.60;64.30;;;;;;5068340;28;20574;-46
2023/01/28 01:01:33;;;;;;;9.07;8.15;;;7.60;64.20;;;;;;5091807;28;20047;-47
2023/01/28 01:04:04;;;;;;;9.57;8.57;;;7.60;64.20;;;;;;5083533;28;20055;-46
2023/01/28 01:06:34;;;;;;;9.63;8.25;;;7.60;64.30;;;;;;5077098;28;20323;-46
2023/01/28 01:09:09;;;;;;;9.32;8.32;;;7.50;64.20;;;;;;5082696;28;20450;-48
2023/01/28 01:11:36;;;;;;;10.57;8.68;;;7.60;64.20;;;;;;5091349;28;20122;-46
2023/01/28 01:14:09;;;;;;;10.50;9.50;;;7.50;64.20;;;;;;5062976;28;20032;-47
2023/01/28 01:16:38;;;;;;;9.32;8.45;;;7.50;64.30;;;;;;5059380;28;20150;-45
2023/01/28 01:19:08;;;;;;;9.93;8.93;;;7.50;64.40;;;;;;5068287;28;20082;-45
2023/01/28 01:21:36;;;;;;;10.88;9.18;;;7.50;64.50;;;;;;5071868;28;20044;-45
2023/01/28 01:24:03;;;;;;;10.77;9.68;;;7.50;64.40;;;;;;5067036;28;20056;-45
2023/01/28 01:26:32;;;;;;;11.23;9.20;;;7.50;64.50;;;;;;5073337;28;20040;-46
2023/01/28 01:28:59;;;;;;;11.23;9.75;;;7.50;64.40;;;;;;5073186;28;20052;-47
2023/01/28 01:31:26;;;;;;;10.98;9.88;;;7.50;64.40;;;;;;5071476;28;20134;-47
2023/01/28 01:33:53;;;;;;;10.55;9.45;;;7.50;64.30;;;;;;5080873;28;20048;-47
2023/01/28 01:36:20;;;;;;;9.90;8.90;;;7.50;64.30;;;;;;5060342;28;20044;-45
2023/01/28 01:38:51;;;;;;;10.77;9.68;;;7.50;64.30;;;;;;5065533;28;20302;-46
2023/01/28 01:41:29;;;;;;;11.63;10.43;;;7.50;64.30;;;;;;5089811;28;20040;-47
2023/01/28 01:44:02;;;;;;;10.93;9.82;;;7.50;64.00;;;;;;5062931;28;20051;-48
2023/01/28 01:46:46;;;;;;;13.65;9.60;;;7.50;64.10;;;;;;5080049;28;20127;-50
2023/01/28 01:49:25;;;;;;;9.98;8.48;;;7.50;64.20;;;;;;5069294;28;20047;-51
2023/01/28 01:51:59;;;;;;;10.07;8.93;;;7.50;64.10;;;;;;5083545;28;20068;-51
2023/01/28 01:54:31;;;;;;;11.10;9.18;;;7.50;64.00;;;;;;5080911;28;20036;-49
2023/01/28 01:57:01;;;;;;;10.27;9.13;;;7.50;64.70;;;;;;5076604;28;20070;-48
2023/01/28 01:59:31;;;;;;;10.73;9.63;;;7.50;64.00;;;;;;5063980;28;20135;-46
2023/01/28 02:02:03;;;;;;;10.82;9.18;;;7.40;63.70;;;;;;5069211;28;20078;-49
2023/01/28 02:04:39;;;;;;;10.27;9.05;;;7.40;63.70;;;;;;5079419;28;20077;-49
2023/01/28 02:07:08;;;;;;;10.80;8.95;;;7.40;63.60;;;;;;5071236;28;20043;-47
2023/01/28 02:09:40;;;;;;;10.68;9.40;;;7.40;63.60;;;;;;5061386;28;20137;-46
2023/01/28 02:12:09;;;;;;;11.23;9.38;;;7.40;63.50;;;;;;5076696;28;20036;-48
2023/01/28 02:14:43;;;;;;;10.15;9.05;;;7.40;63.60;;;;;;5061578;28;20443;-44
2023/01/28 02:17:12;;;;;;;10.20;8.88;;;7.30;63.60;;;;;;5072240;28;20090;-47
2023/01/28 02:19:53;;;;;;;10.68;8.85;;;7.30;63.60;;;;;;5090330;28;20068;-44
2023/01/28 02:22:45;;;;;;;10.75;8.80;;;7.30;63.50;;;;;;5066748;28;20124;-44
2023/01/28 02:25:42;;;;;;;10.10;8.63;;;7.20;63.30;;;;;;5076400;28;20044;-44
2023/01/28 02:28:13;;;;;;;9.95;8.80;;;7.20;63.10;;;;;;5077769;28;20034;-46
2023/01/28 02:31:08;;;;;;;11.75;9.00;;;7.20;63.30;;;;;;5077393;28;20036;-47
2023/01/28 02:33:58;;;;;;;13.10;10.38;;;7.20;63.30;;;;;;5062683;28;20046;-43
2023/01/28 02:36:35;;;;;;;10.27;9.27;;;7.20;63.40;;;;;;5064029;28;20378;-46
2023/01/28 02:39:09;;;;;;;11.90;9.90;;;7.10;63.40;;;;;;5065023;28;20098;-45
2023/01/28 02:41:45;;;;;;;11.02;9.82;;;7.10;63.30;;;;;;5058524;28;20420;-47
2023/01/28 02:44:13;;;;;;;12.65;10.90;;;7.10;63.30;;;;;;5067982;28;20044;-46
2023/01/28 02:49:51;;;;;;;12.65;10.13;;;7.10;63.40;;;;;;5064266;28;20051;-43
2023/01/28 02:56:03;;;;;;;12.43;10.02;;;7.00;63.00;;;;;;5070767;28;20422;-46
2023/01/28 02:58:55;;;;;;;13.65;11.40;;;7.00;63.10;;;;;;5061215;28;20135;-46
2023/01/28 03:01:32;;;;;;;11.77;10.25;;;7.00;63.10;;;;;;5054009;28;20534;-47
2023/01/28 03:04:09;;;;;;;12.00;10.52;;;6.90;63.20;;;;;;5084337;28;20042;-49
2023/01/28 03:06:44;;;;;;;14.80;10.98;;;6.90;63.20;;;;;;5070304;28;20052;-47
2023/01/28 03:09:21;;;;;;;;;;;6.90;63.20;;;;;;5067241;28;20193;-45
2023/01/28 03:39:05;;;;;;;11.45;7.82;;;6.80;63.10;;;;;;5067847;28;20040;-45
2023/01/28 03:41:31;;;;;;;10.00;8.35;;;6.80;63.20;;;;;;5079869;28;20102;-44
2023/01/28 03:46:48;;;;;;;10.20;8.32;;;6.80;63.00;;;;;;5066474;28;20597;-45
2023/01/28 03:49:16;;;;;;;11.23;8.75;;;6.80;63.20;;;;;;5067338;28;20089;-45
2023/01/28 03:51:47;;;;;;;9.57;8.52;;;6.70;63.10;;;;;;5064242;28;20471;-47
2023/01/28 03:54:15;;;;;;;10.98;9.52;;;6.70;62.90;;;;;;5054893;28;20064;-47
2023/01/28 03:56:41;;;;;;;11.57;9.23;;;6.70;63.00;;;;;;5069442;28;20048;-44
2023/01/28 03:59:09;;;;;;;10.25;9.07;;;6.70;63.00;;;;;;5064787;28;20044;-48
2023/01/28 04:01:38;;;;;;;11.48;9.00;;;6.70;63.00;;;;;;5080260;28;20079;-45
2023/01/28 04:04:07;;;;;;;10.77;8.93;;;6.70;63.00;;;;;;5064875;28;20786;-45
2023/01/28 04:06:36;;;;;;;10.68;8.82;;;6.70;62.90;;;;;;5053784;28;20056;-47
2023/01/28 04:09:22;;;;;;;11.30;9.10;;;6.70;62.90;;;;;;5083550;28;20067;-48
2023/01/28 04:12:01;;;;;;;10.90;8.15;;;6.70;63.00;;;;;;5084311;22;20036;31
2023/01/28 04:14:34;;;;;;;11.18;9.15;;;6.70;63.10;;;;;;5045233;28;20398;-44
2023/01/28 04:17:10;;;;;;;11.43;9.48;;;6.60;63.00;;;;;;5030816;28;20132;-44
2023/01/28 04:19:44;;;;;;;11.27;9.02;;;6.70;63.10;;;;;;5027885;28;20153;-44
2023/01/28 04:22:17;;;;;;;11.15;9.15;;;6.60;63.10;;;;;;5044914;28;20092;-45
2023/01/28 04:24:46;;;;;;;10.60;8.80;;;6.60;62.90;;;;;;5029125;28;20037;-46
2023/01/28 04:27:17;;;;;;;11.75;9.07;;;6.70;63.10;;;;;;5045948;28;20065;-44
2023/01/28 04:29:50;;;;;;;11.73;8.77;;;6.70;63.00;;;;;;5047661;28;20041;-44
2023/01/28 04:32:37;;;;;;;10.55;8.95;;;6.70;63.00;;;;;;5021311;28;20049;-45
2023/01/28 04:35:25;;;;;;;10.45;9.13;;;6.60;63.10;;;;;;5031614;28;20048;-46
2023/01/28 04:38:15;;;;;;;10.82;8.70;;;6.60;63.10;;;;;;5024053;28;20664;-45
2023/01/28 04:41:02;;;;;;;10.10;8.35;;;6.70;63.10;;;;;;5024316;28;20060;-45
2023/01/28 04:43:33;;;;;;;11.82;9.23;;;6.60;63.00;;;;;;5029036;28;20042;-45
2023/01/28 04:46:28;;;;;;;10.13;8.48;;;6.60;62.90;;;;;;5030779;28;20038;-45
2023/01/28 04:49:10;;;;;;;13.02;9.23;;;6.70;62.80;;;;;;5027796;28;20476;-45
2023/01/28 04:51:57;;;;;;;11.30;9.98;;;6.70;63.50;;;;;;5028601;28;20701;-44
2023/01/28 04:54:42;;;;;;;15.18;10.35;;;6.70;62.90;;;;;;5047281;28;20046;-45
2023/01/28 04:57:08;;;;;;;11.32;9.15;;;6.70;62.90;;;;;;5030700;28;20068;-46
2023/01/28 04:59:37;;;;;;;11.88;9.00;;;6.60;62.80;;;;;;5027316;28;20049;-44
2023/01/28 05:02:10;;;;;;;13.20;9.63;;;6.60;62.90;;;;;;5029842;28;20128;-46
2023/01/28 05:04:40;;;;;;;11.13;8.82;;;6.60;62.90;;;;;;5030351;28;20042;-45
2023/01/28 05:07:12;;;;;;;11.48;8.95;;;6.60;63.00;;;;;;5030547;28;20128;-44
2023/01/28 05:09:39;;;;;;;11.88;9.43;;;6.60;62.90;;;;;;5029140;28;20056;-43
2023/01/28 05:12:06;;;;;;;11.43;9.60;;;6.70;62.80;;;;;;5045971;28;20049;-46
2023/01/28 05:14:35;;;;;;;12.75;9.63;;;6.70;62.60;;;;;;5029895;28;20046;-46
2023/01/28 05:17:10;;;;;;;11.85;9.48;;;6.70;62.60;;;;;;5030026;28;20418;-44
2023/01/28 05:19:37;;;;;;;13.45;10.57;;;6.70;62.60;;;;;;5023208;28;20136;-44
2023/01/28 05:22:09;;;;;;;;;;;6.70;63.00;;;;;;5042677;28;20030;-44
2023/01/28 05:24:41;;;;;;;11.00;8.75;;;6.70;62.00;;;;;;5046477;28;19921;-45
2023/01/28 05:27:08;;;;;;;14.48;10.07;;;6.70;62.30;;;;;;5028398;28;20438;-47
2023/01/28 05:29:35;;;;;;;13.77;10.35;;;6.70;62.20;;;;;;5044353;28;20534;-47
2023/01/28 05:32:02;;;;;;;14.43;10.68;;;6.70;62.10;;;;;;5046754;28;20132;-45
2023/01/28 05:34:29;;;;;;;12.45;10.40;;;6.70;62.10;;;;;;5029541;28;20045;-45
2023/01/28 05:37:00;;;;;;;13.23;10.88;;;6.70;62.00;;;;;;5036948;28;20042;-44
2023/01/28 05:39:33;;;;;;;14.02;11.02;;;6.70;61.90;;;;;;5042848;28;20052;-46
2023/01/28 05:41:59;;;;;;;13.45;11.52;;;6.70;61.60;;;;;;5029853;28;20560;-45
2023/01/28 05:44:30;;;;;;;14.32;11.15;;;6.70;61.50;;;;;;5046131;28;20132;-46
2023/01/28 05:47:14;;;;;;;13.75;11.23;;;6.60;61.40;;;;;;5021389;28;20057;-45
2023/01/28 05:50:00;;;;;;;13.77;10.38;;;6.60;61.50;;;;;;5030034;28;20046;-45
2023/01/28 05:52:36;;;;;;;17.60;11.13;;;6.60;61.60;;;;;;5030271;28;20041;-46
2023/01/28 05:55:05;;;;;;;14.40;11.30;;;6.60;61.40;;;;;;5029546;28;20065;-46
2023/01/28 05:57:32;;;;;;;14.60;11.27;;;6.60;61.30;;;;;;5027218;28;20651;-46
2023/01/28 06:00:04;;;;;;;15.43;12.13;;;6.60;61.30;;;;;;5046243;28;20049;-47
2023/01/28 06:02:41;;;;;;;14.80;12.05;;;6.60;61.40;;;;;;5030399;28;20057;-43
2023/01/28 06:05:13;;;;;;;14.73;11.43;;;6.60;61.50;;;;;;5029374;28;20095;-45
2023/01/28 06:07:46;;;;;;;17.13;11.85;;;6.60;61.50;;;;;;5028778;28;20084;-45
2023/01/28 06:10:16;;;;;;;15.18;11.30;;;6.50;61.40;;;;;;5046223;28;20091;-47
2023/01/28 06:12:46;;;;;;;17.20;11.93;;;6.50;61.50;;;;;;5027051;28;20046;-46
2023/01/28 06:15:32;;;;;;;16.30;11.80;;;6.50;61.60;;;;;;5022628;28;20542;-45
2023/01/28 06:18:23;;;;;;;14.30;11.15;;;6.60;61.70;;;;;;5038763;28;20509;-46
2023/01/28 06:20:51;;;;;;;16.83;12.52;;;6.50;61.50;;;;;;5027327;28;20616;-43
2023/01/28 06:23:17;;;;;;;15.15;11.50;;;6.60;61.50;;;;;;5026512;28;20498;-46
2023/01/28 06:25:44;;;;;;;16.40;12.05;;;6.50;61.20;;;;;;5022121;28;20111;-47
2023/01/28 06:28:13;;;;;;;16.58;11.57;;;6.50;61.00;;;;;;5026916;28;20588;-48
2023/01/28 06:30:45;;;;;;;16.90;12.05;;;6.60;60.80;;;;;;5028286;28;20065;-45
2023/01/28 06:33:11;;;;;;;16.42;11.18;;;6.50;60.50;;;;;;5029618;28;20056;-43
2023/01/28 06:35:38;;;;;;;14.32;10.90;;;6.50;60.40;;;;;;5024272;28;20406;-46
2023/01/28 06:38:05;;;;;;;17.77;10.85;;;6.50;60.40;;;;;;5030087;28;20033;-45
2023/01/28 06:40:31;;;;;;;19.48;13.30;;;6.50;60.40;;;;;;5030305;28;20041;-46
2023/01/28 06:42:58;;;;;;;17.85;12.00;;;6.50;60.20;;;;;;5029605;28;20049;-43
2023/01/28 06:45:25;;;;;;;15.63;11.43;;;6.50;59.90;;;;;;5029317;28;20041;-48
2023/01/28 06:47:52;;;;;;;16.77;11.70;;;6.50;59.90;;;;;;5031392;28;20051;-46
2023/01/28 06:50:18;;;;;;;18.27;12.25;;;6.50;60.00;;;;;;5033114;28;20041;-44
2023/01/28 06:52:45;;;;;;;18.58;12.65;;;6.50;59.90;;;;;;5030242;28;20049;-45
2023/01/28 06:55:13;;;;;;;15.73;11.57;;;6.40;59.90;;;;;;5024829;28;20041;-46
2023/01/28 06:57:44;;;;;;;18.42;12.85;;;6.40;59.80;;;;;;5028879;28;20128;-45
2023/01/28 07:00:14;;;;;;;19.42;12.48;;;6.40;59.80;;;;;;5028013;28;20754;-43
2023/01/28 07:02:41;;;;;;;17.15;12.18;;;6.40;59.90;;;;;;5024514;28;20525;-46
2023/01/28 07:05:10;;;;;;;19.77;13.65;;;6.40;60.60;;;;;;5034964;28;20121;-45
2023/01/28 07:07:37;;;;;;;19.42;13.82;;;6.40;59.80;;;;;;5028530;28;20077;-44
2023/01/28 07:10:09;;;;;;;17.60;12.48;;;6.40;59.70;;;;;;5023687;28;20041;-44
2023/01/28 07:12:35;;;;;;;17.95;12.32;;;6.40;59.50;;;;;;5042750;28;20064;-45
2023/01/28 07:15:02;;;;;;;21.48;13.35;;;6.40;59.50;;;;;;5017429;28;20047;-45
2023/01/28 07:17:29;;;;;;;16.65;12.13;;;6.40;59.60;;;;;;5027086;28;20421;-47
2023/01/28 07:19:56;;;;;;;21.17;13.35;;;6.40;59.70;;;;;;5026150;28;20125;-42
2023/01/28 07:22:22;;;;;;;21.13;14.32;;;6.30;59.60;;;;;;5028712;28;20041;-44
2023/01/28 07:24:49;;;;;;;19.50;13.95;;;6.30;59.40;;;;;;5024412;28;20129;-45
2023/01/28 07:27:18;;;;;;;20.42;14.85;;;6.30;59.50;;;;;;5022788;28;20064;-44
2023/01/28 07:29:45;;;;;;;22.73;15.20;;;6.30;59.40;;;;;;5024021;28;20069;-44
2023/01/28 07:32:14;;;;;;;23.33;15.25;;;6.30;59.40;;;;;;5013837;28;20053;-44
2023/01/28 07:34:41;;;;;;;21.95;14.73;;;6.30;59.30;;;;;;5024708;28;20092;-44
2023/01/28 07:37:08;;;;;;;20.75;14.63;;;6.30;59.40;;;;;;5027272;28;20037;-45
2023/01/28 07:39:35;;;;;;;21.70;14.25;;;6.30;59.50;;;;;;5020203;28;20447;-45
2023/01/28 07:42:03;;;;;;;21.27;15.02;;;6.20;59.50;;;;;;5031111;28;20160;-49
2023/01/28 07:44:37;;;;;;;20.40;14.27;;;6.30;59.60;;;;;;5041880;28;20421;-44
2023/01/28 07:47:05;;;;;;;19.55;14.32;;;6.20;59.80;;;;;;5029569;28;20041;-43
2023/01/28 07:49:33;;;;;;;18.50;14.48;;;6.20;59.70;;;;;;5032553;28;20524;-45
2023/01/28 07:51:59;;;;;;;19.50;14.32;;;6.30;59.70;;;;;;5032570;28;20120;-45
2023/01/28 07:54:26;;;;;;;21.40;14.25;;;6.30;59.60;;;;;;5033610;28;20520;-44
2023/01/28 07:56:53;;;;;;;20.92;13.80;;;6.30;59.50;;;;;;5030978;28;20790;-45
2023/01/28 07:59:19;;;;;;;21.13;13.75;;;6.30;59.40;;;;;;5030020;28;20100;-47
2023/01/28 08:01:46;;;;;;;21.30;15.07;;;6.30;59.30;;;;;;5032229;28;20563;-44
2023/01/28 08:04:12;;;;;;;23.30;16.00;;;6.30;59.30;;;;;;5031184;28;20045;-46
2023/01/28 08:06:39;;;;;;;19.45;13.77;;;6.30;59.40;;;;;;5027057;28;20049;-45
2023/01/28 08:09:07;;;;;;;21.88;15.30;;;6.30;59.50;;;;;;5029691;28;20417;-46
2023/01/28 08:11:37;;;;;;;22.25;15.65;;;6.30;59.50;;;;;;5032916;28;20058;-46
2023/01/28 08:14:04;;;;;;;20.92;14.95;;;6.30;59.40;;;;;;5032164;28;20087;-45
2023/01/28 08:16:31;;;;;;;20.77;14.07;;;6.30;59.30;;;;;;5027808;28;20044;-44
2023/01/28 08:18:58;;;;;;;22.83;14.88;;;6.30;59.20;;;;;;5031387;28;20041;-44
2023/01/28 08:21:24;;;;;;;25.38;15.88;;;6.30;59.60;;;;;;5033163;28;20043;-46
2023/01/28 08:23:51;;;;;;;22.33;14.95;;;6.30;58.90;;;;;;5026337;28;20057;-45
2023/01/28 08:26:18;;;;;;;20.23;14.15;;;6.30;58.70;;;;;;5025271;28;20041;-45
2023/01/28 08:28:45;;;;;;;21.45;14.05;;;6.30;58.70;;;;;;5044614;28;20148;-46
2023/01/28 08:31:11;;;;;;;22.55;14.63;;;6.30;58.70;;;;;;5032228;28;20038;-44
2023/01/28 08:33:38;;;;;;;20.88;14.68;;;6.40;58.90;;;;;;5024798;28;20052;-45
2023/01/28 08:36:05;;;;;;;22.42;14.90;;;6.40;58.80;;;;;;5031448;28;20438;-45
2023/01/28 08:38:32;;;;;;;23.25;15.38;;;6.40;58.80;;;;;;5031729;28;20038;-43
2023/01/28 08:41:00;;;;;;;20.90;14.73;;;6.40;59.50;;;;;;5030961;28;20045;-46
2023/01/28 08:43:27;;;;;;;23.95;16.02;;;6.40;58.80;;;;;;5031128;28;20045;-43
2023/01/28 08:45:56;;;;;;;24.60;16.27;;;6.50;59.00;;;;;;5030922;28;20052;-46
2023/01/28 08:48:22;;;;;;;23.92;15.95;;;6.50;58.90;;;;;;5036486;28;20509;-44
2023/01/28 08:50:49;;;;;;;23.05;15.93;;;6.50;58.70;;;;;;5031069;28;20124;-47
2023/01/28 08:53:18;;;;;;;21.92;14.35;;;6.50;58.60;;;;;;5030710;28;20406;-46
2023/01/28 08:55:45;;;;;;;21.50;14.02;;;6.50;58.30;;;;;;5028033;28;20441;-46
2023/01/28 08:58:14;;;;;;;20.15;14.38;;;6.60;58.30;;;;;;5047914;28;20037;-44
2023/01/28 09:00:42;;;;;;;20.33;15.07;;;6.60;58.20;;;;;;5030471;28;20072;-49
2023/01/28 09:03:09;;;;;;;24.60;16.02;;;6.60;58.30;;;;;;5025534;28;20050;-46
2023/01/28 09:05:36;;;;;;;22.77;15.20;;;6.60;58.30;;;;;;5029889;28;20459;-45
2023/01/28 09:08:05;;;;;;;22.20;15.57;;;6.60;58.30;;;;;;5029812;28;20053;-46
2023/01/28 09:10:36;;;;;;;23.77;16.00;;;6.60;58.40;;;;;;5025749;28;20128;-44
2023/01/28 09:13:07;;;;;;;23.08;15.38;;;6.60;58.30;;;;;;5030490;28;20045;-44
2023/01/28 09:15:39;;;;;;;22.45;15.73;;;6.70;58.40;;;;;;5030353;28;20069;-47
2023/01/28 09:18:06;;;;;;;26.52;15.77;;;6.70;58.30;;;;;;5029559;28;20037;-46
2023/01/28 09:20:33;;;;;;;21.58;15.20;;;6.70;58.30;;;;;;5031620;28;20048;-45
2023/01/28 09:23:00;;;;;;;26.55;15.43;;;6.70;58.30;;;;;;5028381;28;20672;-46
2023/01/28 09:25:27;;;;;;;21.95;14.50;;;6.80;58.30;;;;;;5031811;28;20053;-46
2023/01/28 09:27:54;;;;;;;20.63;14.40;;;6.80;58.30;;;;;;5030796;28;20049;-45
2023/01/28 09:30:23;;;;;;;22.75;14.75;;;6.80;58.20;;;;;;5032015;28;20095;-45
2023/01/28 09:32:52;;;;;;;22.35;14.93;;;6.80;58.00;;;;;;5029429;28;20486;-44
2023/01/28 09:35:19;;;;;;;22.08;14.70;;;6.80;57.80;;;;;;5031864;28;20037;-46
2023/01/28 09:37:46;;;;;;;22.02;14.85;;;6.80;57.90;;;;;;5030459;28;20391;-45
2023/01/28 09:40:16;;;;;;;24.58;14.95;;;6.90;57.80;;;;;;5031587;28;20037;-45
2023/01/28 09:43:05;;;;;;;22.88;14.90;;;6.90;57.70;;;;;;5025848;28;20045;-44
2023/01/28 09:45:43;;;;;;;21.20;15.02;;;6.90;57.40;;;;;;5025824;28;20124;-44
2023/01/28 09:48:36;;;;;;;20.55;13.35;;;6.90;58.10;;;;;;5022952;28;20048;-45
2023/01/28 09:51:21;;;;;;;22.63;14.95;;;6.90;58.00;;;;;;5028815;28;20452;-44
2023/01/28 09:53:53;;;;;;;20.17;13.80;;;6.90;57.90;;;;;;5022320;28;20084;-45
2023/01/28 09:56:42;;;;;;;22.48;15.18;;;6.90;58.10;;;;;;5030056;28;20048;-45
2023/01/28 09:59:18;;;;;;;19.58;13.95;;;6.90;57.40;;;;;;5030646;28;20454;-45
2023/01/28 10:01:51;;;;;;;23.65;15.07;;;7.00;57.80;;;;;;5025112;28;20123;-46
2023/01/28 10:04:44;;;;;;;21.70;15.73;;;6.90;58.10;;;;;;5019180;28;20041;-46
2023/01/28 10:07:31;;;;;;;21.27;14.88;;;7.00;57.60;;;;;;5029343;28;20136;-44
2023/01/28 10:10:11;;;;;;;24.27;16.08;;;7.00;57.90;;;;;;5030250;28;20045;-44
2023/01/28 10:12:40;;;;;;;21.13;15.40;;;7.00;57.60;;;;;;5027082;28;20049;-45
2023/01/28 10:15:27;;;;;;;22.77;15.63;;;7.00;58.00;;;;;;5030253;28;20048;-45
2023/01/28 10:18:01;;;;;;;20.67;14.10;;;7.10;57.80;;;;;;5029454;28;20120;-47
2023/01/28 10:20:53;;;;;;;21.98;15.10;;;7.10;57.70;;;;;;5027913;28;20033;-44
2023/01/28 10:23:26;;;;;;;22.90;15.70;;;7.10;57.30;;;;;;5019999;28;20041;-47
2023/01/28 10:25:56;;;;;;;23.15;15.77;;;7.10;57.50;;;;;;5028153;28;20045;-45
2023/01/28 10:28:28;;;;;;;22.73;15.88;;;7.10;57.70;;;;;;5028812;28;20091;-48
2023/01/28 10:30:55;;;;;;;21.08;14.70;;;7.20;57.70;;;;;;5029682;28;20133;-50
2023/01/28 10:33:36;;;;;;;21.40;14.95;;;7.20;57.60;;;;;;5025867;28;20554;-47
2023/01/28 10:36:03;;;;;;;20.65;14.90;;;7.20;56.80;;;;;;5029509;28;20046;-44
2023/01/28 10:38:30;;;;;;;22.15;15.07;;;7.20;57.30;;;;;;5028760;28;20075;-43
2023/01/28 10:41:00;;;;;;;21.77;15.00;;;7.20;57.20;;;;;;5028901;28;20042;-45
2023/01/28 10:43:32;;;;;;;22.15;16.15;;;7.20;57.10;;;;;;5028727;28;20124;-44
2023/01/28 10:46:15;;;;;;;19.35;13.90;;;7.20;56.90;;;;;;5026302;28;20125;-45
2023/01/28 10:49:13;;;;;;;21.48;14.25;;;7.10;56.70;;;;;;5024887;28;20405;-44
2023/01/28 10:51:41;;;;;;;20.98;14.38;;;7.10;56.60;;;;;;5026170;28;20046;-45
2023/01/28 10:54:20;;;;;;;20.17;14.52;;;7.10;57.10;;;;;;5029437;28;20041;-45
2023/01/28 10:56:49;;;;;;;20.25;14.18;;;7.10;56.80;;;;;;5023216;28;20037;-46
2023/01/28 10:59:27;;;;;;;19.83;12.88;;;7.00;57.00;;;;;;5029114;28;20049;-46
2023/01/28 11:01:56;;;;;;;18.85;13.27;;;7.00;56.60;;;;;;5030575;28;20053;-47
2023/01/28 11:04:30;;;;;;;22.30;14.35;;;7.00;57.10;;;;;;5027874;28;20038;-46
2023/01/28 11:07:02;;;;;;;19.75;13.93;;;7.00;57.00;;;;;;5024343;28;20494;-44
2023/01/28 11:09:33;;;;;;;20.92;13.98;;;7.00;56.80;;;;;;5029135;28;20132;-45
2023/01/28 11:12:33;;;;;;;18.02;13.05;;;6.90;56.90;;;;;;5028269;28;20045;-45
2023/01/28 11:15:03;;;;;;;16.10;12.20;;;6.80;56.60;;;;;;5023297;28;20137;-44
2023/01/28 11:17:33;;;;;;;16.33;12.48;;;6.80;57.00;;;;;;5028735;28;20073;-44
2023/01/28 11:20:17;;;;;;;18.77;12.77;;;6.70;56.90;;;;;;5033166;28;20115;-46
2023/01/28 11:22:44;;;;;;;17.13;12.00;;;6.70;57.10;;;;;;5033966;28;20375;-45
2023/01/28 11:25:30;;;;;;;15.40;12.27;;;6.60;57.30;;;;;;5029658;28;20165;-44
2023/01/28 11:28:04;;;;;;;15.80;12.18;;;6.60;56.90;;;;;;5033348;28;20408;-44
2023/01/28 11:30:34;;;;;;;16.90;11.90;;;6.60;57.40;;;;;;5032720;28;20037;-46
2023/01/28 11:33:20;;;;;;;17.15;13.18;;;6.60;57.20;;;;;;5031513;28;20036;-45
2023/01/28 11:36:02;;;;;;;15.68;11.52;;;6.60;56.80;;;;;;5027253;28;20044;-47
2023/01/28 11:38:33;;;;;;;15.80;12.27;;;6.70;56.90;;;;;;5033945;28;20041;-45
2023/01/28 11:41:03;;;;;;;15.43;11.60;;;6.60;57.30;;;;;;5034346;28;20048;-47
2023/01/28 11:43:36;;;;;;;15.30;11.13;;;6.60;57.20;;;;;;5027834;28;20478;-45
2023/01/28 11:46:37;;;;;;;16.88;10.82;;;6.70;57.40;;;;;;5034205;28;20103;-48
2023/01/28 11:49:41;;;;;;;14.02;10.35;;;6.70;56.80;;;;;;5025738;28;20053;-45
2023/01/28 11:52:30;;;;;;;12.85;10.20;;;6.70;56.80;;;;;;5029711;28;20056;-45
2023/01/28 11:55:39;;;;;;;14.82;11.05;;;6.80;56.80;;;;;;5036034;28;20064;-44
2023/01/28 11:58:23;;;;;;;15.02;10.60;;;6.80;56.80;;;;;;5033841;28;20077;-46
2023/01/28 12:01:12;;;;;;;15.43;11.27;;;6.70;56.90;;;;;;5028644;28;20531;-43
2023/01/28 12:04:02;;;;;;;13.85;10.55;;;6.70;56.70;;;;;;5028134;28;20034;-45
2023/01/28 12:07:05;;;;;;;14.20;10.82;;;6.70;57.10;;;;;;5021991;28;20116;-46
2023/01/28 12:09:52;;;;;;;14.10;10.48;;;6.70;56.40;;;;;;5020718;28;20452;-44
2023/01/28 12:12:34;;;;;;;13.43;9.98;;;6.70;56.60;;;;;;5023817;28;20049;-46
2023/01/28 12:15:40;;;;;;;13.48;10.43;;;6.60;56.80;;;;;;5032885;28;20409;-45
2023/01/28 12:18:19;;;;;;;14.63;11.45;;;6.60;56.60;;;;;;5033484;28;20069;-45
2023/01/28 12:20:58;;;;;;;19.42;12.13;;;6.60;57.20;;;;;;5031800;28;20124;-44
2023/01/28 12:24:02;;;;;;;17.35;12.85;;;6.60;57.20;;;;;;5027518;28;20083;-45
2023/01/28 12:27:06;;;;;;;15.10;11.38;;;6.60;56.50;;;;;;5027140;28;20041;-48
2023/01/28 12:29:33;;;;;;;15.18;11.35;;;6.70;56.40;;;;;;5002215;28;20058;-45
2023/01/28 12:32:05;;;;;;;15.95;11.50;;;6.70;57.30;;;;;;5030933;28;20049;-48
2023/01/28 12:34:47;;;;;;;18.65;14.15;;;6.70;57.20;;;;;;5032934;28;20116;-45
2023/01/28 12:37:42;;;;;;;17.10;13.15;;;6.80;57.20;;;;;;5033363;28;20061;-46
2023/01/28 12:40:21;;;;;;;16.92;12.90;;;6.90;56.60;;;;;;5029714;28;20532;-46
2023/01/28 12:42:53;;;;;;;19.75;14.57;;;7.00;56.70;;;;;;5020637;28;20750;-43
2023/01/28 12:45:32;;;;;;;22.13;15.93;;;7.00;56.70;;;;;;5029474;28;20120;-47
2023/01/28 12:48:10;;;;;;;21.25;14.98;;;7.10;56.50;;;;;;5029561;28;20120;-49
2023/01/28 12:50:50;;;;;;;19.98;15.25;;;7.20;56.50;;;;;;5034207;28;20437;-46
2023/01/28 12:53:39;;;;;;;18.92;14.23;;;7.30;56.00;;;;;;5032258;28;20045;-45
2023/01/28 12:56:21;;;;;;;19.13;14.55;;;7.30;55.60;;;;;;5027448;28;20112;-49
2023/01/28 12:59:04;;;;;;;18.55;13.18;;;7.40;56.10;;;;;;5046240;28;20417;-47
2023/01/28 13:01:58;;;;;;;20.83;14.85;;;7.40;56.20;;;;;;5032107;28;20048;-45
2023/01/28 13:04:49;;;;;;;18.38;14.13;;;7.50;56.30;;;;;;5020990;28;20080;-45
2023/01/28 13:07:42;;;;;;;18.88;13.95;;;7.60;55.70;;;;;;5029427;28;20063;-45
2023/01/28 13:10:32;;;;;;;19.63;14.93;;;7.70;55.60;;;;;;5030192;28;20124;-46
2023/01/28 13:12:59;;;;;;;18.15;13.98;;;7.80;55.10;;;;;;5025899;28;20053;-45
2023/01/28 13:15:27;;;;;;;18.45;14.10;;;7.90;56.10;;;;;;5029856;28;20049;-45
2023/01/28 13:18:02;;;;;;;20.88;15.02;;;8.00;55.80;;;;;;5032277;28;20410;-46
2023/01/28 13:20:35;;;;;;;17.52;14.13;;;8.10;55.20;;;;;;5031984;28;20533;-45
2023/01/28 13:23:25;;;;;;;19.08;14.32;;;8.10;54.80;;;;;;5030760;28;20041;-46
2023/01/28 13:25:54;;;;;;;18.38;13.98;;;8.20;54.10;;;;;;5025501;28;20510;-44
2023/01/28 13:28:30;;;;;;;20.90;14.90;;;8.20;54.80;;;;;;5024493;28;20076;-45
2023/01/28 13:31:06;;;;;;;18.85;15.07;;;8.20;54.30;;;;;;5032467;28;20056;-44
2023/01/28 13:33:38;;;;;;;17.02;13.52;;;8.20;54.40;;;;;;5023780;28;20049;-45
2023/01/28 13:36:30;;;;;;;18.08;14.00;;;8.20;54.30;;;;;;5027397;28;20056;-46
2023/01/28 13:39:18;;;;;;;19.35;14.52;;;8.30;53.80;;;;;;5030671;28;20051;-43
2023/01/28 13:41:48;;;;;;;20.20;14.57;;;8.20;53.20;;;;;;5023679;28;20065;-44
2023/01/28 13:44:24;;;;;;;17.67;14.10;;;8.10;54.10;;;;;;5031748;28;20041;-46
2023/01/28 13:46:53;;;;;;;17.38;13.55;;;8.10;53.80;;;;;;5028477;28;20069;-44
2023/01/28 13:49:49;;;;;;;17.52;13.82;;;8.00;54.00;;;;;;5030589;28;20128;-46
2023/01/28 13:52:27;;;;;;;19.55;14.98;;;8.00;53.60;;;;;;5030246;28;20053;-45